sensor_id;sensor_type;location;lat;lon;timestamp;pressure;altitude;pressure_sealevel;temperature;humidity
76660;BME280;65579;45.534;6.212;2023-09-18T00:01:38;97760.88;;;23.20;44.17
76660;BME280;65579;45.534;6.212;2023-09-18T00:04:03;97766.51;;;22.27;46.07
76660;BME280;65579;45.534;6.212;2023-09-18T00:06:28;97765.23;;;22.65;44.53
76660;BME280;65579;45.534;6.212;2023-09-18T00:08:54;97775.04;;;23.05;44.02
76660;BME280;65579;45.534;6.212;2023-09-18T00:11:19;97769.54;;;23.39;42.94
76660;BME280;65579;45.534;6.212;2023-09-18T00:13:45;97761.76;;;23.38;43.30
76660;BME280;65579;45.534;6.212;2023-09-18T00:16:10;97757.82;;;21.17;47.59
76660;BME280;65579;45.534;6.212;2023-09-18T00:18:35;97747.31;;;22.80;44.90
76660;BME280;65579;45.534;6.212;2023-09-18T00:21:01;97739.97;;;23.35;43.19
76660;BME280;65579;45.534;6.212;2023-09-18T00:23:26;97745.46;;;23.55;42.60
76660;BME280;65579;45.534;6.212;2023-09-18T00:25:52;97756.41;;;23.47;42.74
76660;BME280;65579;45.534;6.212;2023-09-18T00:28:17;97770.03;;;23.09;42.83
76660;BME280;65579;45.534;6.212;2023-09-18T00:30:48;97777.17;;;22.29;45.05
76660;BME280;65579;45.534;6.212;2023-09-18T00:33:09;97777.20;;;21.93;46.43
76660;BME280;65579;45.534;6.212;2023-09-18T00:35:34;97779.02;;;20.31;48.97
76660;BME280;65579;45.534;6.212;2023-09-18T00:38:00;97767.46;;;21.64;47.63
76660;BME280;65579;45.534;6.212;2023-09-18T00:40:25;97768.50;;;22.55;46.04
76660;BME280;65579;45.534;6.212;2023-09-18T00:42:50;97775.49;;;22.40;44.97
76660;BME280;65579;45.534;6.212;2023-09-18T00:45:16;97789.16;;;20.43;49.67
76660;BME280;65579;45.534;6.212;2023-09-18T00:47:41;97797.45;;;20.43;50.03
76660;BME280;65579;45.534;6.212;2023-09-18T00:50:09;97800.60;;;20.35;50.42
76660;BME280;65579;45.534;6.212;2023-09-18T00:52:32;97802.67;;;17.45;57.32
76660;BME280;65579;45.534;6.212;2023-09-18T00:54:57;97808.50;;;16.61;60.22
76660;BME280;65579;45.534;6.212;2023-09-18T00:57:23;97810.56;;;17.84;57.44
76660;BME280;65579;45.534;6.212;2023-09-18T00:59:49;97821.93;;;16.76;59.50
76660;BME280;65579;45.534;6.212;2023-09-18T01:02:15;97836.36;;;17.21;59.78
76660;BME280;65579;45.534;6.212;2023-09-18T01:04:40;97841.34;;;16.74;60.93
76660;BME280;65579;45.534;6.212;2023-09-18T01:07:05;97835.09;;;18.28;57.45
76660;BME280;65579;45.534;6.212;2023-09-18T01:09:31;97821.98;;;19.01;54.76
76660;BME280;65579;45.534;6.212;2023-09-18T01:12:02;97818.12;;;17.61;57.50
76660;BME280;65579;45.534;6.212;2023-09-18T01:14:29;97804.41;;;17.77;58.21
76660;BME280;65579;45.534;6.212;2023-09-18T01:16:53;97800.15;;;17.34;58.34
76660;BME280;65579;45.534;6.212;2023-09-18T01:19:13;97805.38;;;17.06;59.05
76660;BME280;65579;45.534;6.212;2023-09-18T01:21:38;97807.63;;;17.39;57.36
76660;BME280;65579;45.534;6.212;2023-09-18T01:24:04;97808.91;;;16.25;60.66
76660;BME280;65579;45.534;6.212;2023-09-18T01:26:30;97810.17;;;15.56;62.37
76660;BME280;65579;45.534;6.212;2023-09-18T01:28:55;97812.04;;;15.66;62.50
76660;BME280;65579;45.534;6.212;2023-09-18T01:31:20;97804.16;;;16.59;59.48
76660;BME280;65579;45.534;6.212;2023-09-18T01:33:47;97801.22;;;16.54;59.71
76660;BME280;65579;45.534;6.212;2023-09-18T01:36:12;97792.85;;;17.09;58.34
76660;BME280;65579;45.534;6.212;2023-09-18T01:38:37;97789.95;;;17.74;56.02
76660;BME280;65579;45.534;6.212;2023-09-18T01:41:03;97798.01;;;19.64;51.52
76660;BME280;65579;45.534;6.212;2023-09-18T01:43:28;97804.33;;;17.11;55.78
76660;BME280;65579;45.534;6.212;2023-09-18T01:45:55;97801.98;;;16.54;60.05
76660;BME280;65579;45.534;6.212;2023-09-18T01:48:19;97808.13;;;17.54;57.53
76660;BME280;65579;45.534;6.212;2023-09-18T01:50:44;97813.31;;;17.35;58.38
76660;BME280;65579;45.534;6.212;2023-09-18T01:53:10;97803.94;;;17.05;60.12
76660;BME280;65579;45.534;6.212;2023-09-18T01:55:35;97800.33;;;16.74;60.79
76660;BME280;65579;45.534;6.212;2023-09-18T01:58:01;97807.10;;;18.84;55.17
76660;BME280;65579;45.534;6.212;2023-09-18T02:00:27;97804.68;;;17.78;56.41
76660;BME280;65579;45.534;6.212;2023-09-18T02:02:52;97802.36;;;20.21;51.52
76660;BME280;65579;45.534;6.212;2023-09-18T02:05:18;97798.87;;;21.80;46.86
76660;BME280;65579;45.534;6.212;2023-09-18T02:07:43;97797.53;;;22.82;44.65
76660;BME280;65579;45.534;6.212;2023-09-18T02:10:09;97793.09;;;23.19;43.17
76660;BME280;65579;45.534;6.212;2023-09-18T02:12:34;97788.14;;;23.82;42.19
76660;BME280;65579;45.534;6.212;2023-09-18T02:15:00;97798.03;;;23.34;42.51
76660;BME280;65579;45.534;6.212;2023-09-18T02:17:25;97797.73;;;24.31;41.31
76660;BME280;65579;45.534;6.212;2023-09-18T02:19:50;97803.67;;;24.20;41.60
76660;BME280;65579;45.534;6.212;2023-09-18T02:22:16;97805.16;;;22.58;44.03
76660;BME280;65579;45.534;6.212;2023-09-18T02:24:41;97802.18;;;22.11;45.75
76660;BME280;65579;45.534;6.212;2023-09-18T02:27:07;97797.23;;;23.61;42.77
76660;BME280;65579;45.534;6.212;2023-09-18T02:29:33;97799.61;;;24.25;41.58
76660;BME280;65579;45.534;6.212;2023-09-18T02:31:58;97799.98;;;24.35;40.93
76660;BME280;65579;45.534;6.212;2023-09-18T02:34:24;97797.40;;;24.61;40.94
76660;BME280;65579;45.534;6.212;2023-09-18T02:36:49;97799.47;;;24.41;40.72
76660;BME280;65579;45.534;6.212;2023-09-18T02:39:15;97801.91;;;24.43;41.12
76660;BME280;65579;45.534;6.212;2023-09-18T02:41:40;97800.92;;;23.97;41.26
76660;BME280;65579;45.534;6.212;2023-09-18T02:44:06;97795.26;;;23.91;41.86
76660;BME280;65579;45.534;6.212;2023-09-18T02:46:32;97788.99;;;22.93;44.07
76660;BME280;65579;45.534;6.212;2023-09-18T02:48:57;97781.53;;;22.56;45.02
76660;BME280;65579;45.534;6.212;2023-09-18T02:51:23;97789.17;;;17.21;55.52
76660;BME280;65579;45.534;6.212;2023-09-18T02:53:48;97789.83;;;16.52;60.89
76660;BME280;65579;45.534;6.212;2023-09-18T02:56:14;97787.71;;;17.29;58.84
76660;BME280;65579;45.534;6.212;2023-09-18T02:58:39;97789.74;;;17.47;59.58
76660;BME280;65579;45.534;6.212;2023-09-18T03:01:07;97794.10;;;18.42;56.76
76660;BME280;65579;45.534;6.212;2023-09-18T03:03:31;97789.24;;;19.37;53.81
76660;BME280;65579;45.534;6.212;2023-09-18T03:06:01;97785.41;;;18.72;55.56
76660;BME280;65579;45.534;6.212;2023-09-18T03:08:22;97774.35;;;18.72;54.73
76660;BME280;65579;45.534;6.212;2023-09-18T03:10:47;97771.28;;;20.42;51.14
76660;BME280;65579;45.534;6.212;2023-09-18T03:13:14;97757.99;;;21.02;49.57
76660;BME280;65579;45.534;6.212;2023-09-18T03:15:38;97754.98;;;20.94;49.44
76660;BME280;65579;45.534;6.212;2023-09-18T03:18:05;97749.86;;;22.38;45.38
76660;BME280;65579;45.534;6.212;2023-09-18T03:20:29;97746.63;;;22.48;44.46
76660;BME280;65579;45.534;6.212;2023-09-18T03:22:56;97752.22;;;23.44;43.56
76660;BME280;65579;45.534;6.212;2023-09-18T03:25:20;97755.84;;;23.52;43.05
76660;BME280;65579;45.534;6.212;2023-09-18T03:27:45;97771.20;;;21.54;47.48
76660;BME280;65579;45.534;6.212;2023-09-18T03:30:11;97770.73;;;22.84;44.31
76660;BME280;65579;45.534;6.212;2023-09-18T03:32:36;97769.03;;;23.34;43.13
76660;BME280;65579;45.534;6.212;2023-09-18T03:35:02;97764.88;;;23.19;43.69
76660;BME280;65579;45.534;6.212;2023-09-18T03:37:27;97756.72;;;23.19;43.78
76660;BME280;65579;45.534;6.212;2023-09-18T03:39:53;97760.78;;;23.46;43.03
76660;BME280;65579;45.534;6.212;2023-09-18T03:42:19;97768.51;;;21.99;45.69
76660;BME280;65579;45.534;6.212;2023-09-18T03:44:44;97777.49;;;23.40;43.43
76660;BME280;65579;45.534;6.212;2023-09-18T03:47:10;97773.55;;;23.76;42.43
76660;BME280;65579;45.534;6.212;2023-09-18T03:49:35;97775.46;;;24.00;42.29
76660;BME280;65579;45.534;6.212;2023-09-18T03:52:01;97765.51;;;24.03;42.20
76660;BME280;65579;45.534;6.212;2023-09-18T03:54:26;97764.42;;;23.80;42.64
76660;BME280;65579;45.534;6.212;2023-09-18T03:56:52;97770.26;;;23.57;43.59
76660;BME280;65579;45.534;6.212;2023-09-18T03:59:17;97768.54;;;23.76;42.28
76660;BME280;65579;45.534;6.212;2023-09-18T04:01:42;97760.95;;;23.98;41.64
76660;BME280;65579;45.534;6.212;2023-09-18T04:04:08;97767.21;;;23.73;42.05
76660;BME280;65579;45.534;6.212;2023-09-18T04:06:42;97765.94;;;24.07;41.86
76660;BME280;65579;45.534;6.212;2023-09-18T04:08:59;97761.77;;;23.90;42.24
76660;BME280;65579;45.534;6.212;2023-09-18T04:11:25;97763.15;;;24.20;41.58
76660;BME280;65579;45.534;6.212;2023-09-18T04:13:50;97768.20;;;24.06;41.16
76660;BME280;65579;45.534;6.212;2023-09-18T04:16:16;97772.63;;;24.09;40.98
76660;BME280;65579;45.534;6.212;2023-09-18T04:18:42;97766.76;;;24.00;42.38
76660;BME280;65579;45.534;6.212;2023-09-18T04:21:08;97766.25;;;23.84;42.64
76660;BME280;65579;45.534;6.212;2023-09-18T04:23:33;97766.76;;;24.05;41.98
76660;BME280;65579;45.534;6.212;2023-09-18T04:25:59;97771.12;;;24.52;41.62
76660;BME280;65579;45.534;6.212;2023-09-18T04:28:24;97785.15;;;24.06;42.28
76660;BME280;65579;45.534;6.212;2023-09-18T04:30:50;97782.60;;;24.06;42.20
76660;BME280;65579;45.534;6.212;2023-09-18T04:33:16;97786.19;;;23.63;42.87
76660;BME280;65579;45.534;6.212;2023-09-18T04:35:41;97785.79;;;23.57;43.18
76660;BME280;65579;45.534;6.212;2023-09-18T04:38:07;97780.25;;;24.04;42.71
76660;BME280;65579;45.534;6.212;2023-09-18T04:40:32;97779.21;;;23.79;42.12
76660;BME280;65579;45.534;6.212;2023-09-18T04:42:58;97782.52;;;24.33;42.33
76660;BME280;65579;45.534;6.212;2023-09-18T04:45:23;97789.50;;;23.62;43.05
76660;BME280;65579;45.534;6.212;2023-09-18T04:47:49;97785.38;;;21.22;47.89
76660;BME280;65579;45.534;6.212;2023-09-18T04:50:15;97776.87;;;21.22;48.17
76660;BME280;65579;45.534;6.212;2023-09-18T04:52:40;97779.47;;;18.22;54.20
76660;BME280;65579;45.534;6.212;2023-09-18T04:55:06;97782.86;;;20.23;51.77
76660;BME280;65579;45.534;6.212;2023-09-18T04:57:31;97782.73;;;22.73;46.76
76660;BME280;65579;45.534;6.212;2023-09-18T04:59:57;97775.30;;;23.16;44.83
76660;BME280;65579;45.534;6.212;2023-09-18T05:02:23;97763.93;;;23.84;43.86
76660;BME280;65579;45.534;6.212;2023-09-18T05:04:48;97755.02;;;21.07;47.88
76660;BME280;65579;45.534;6.212;2023-09-18T05:07:14;97754.07;;;15.75;63.06
76660;BME280;65579;45.534;6.212;2023-09-18T05:09:39;97761.18;;;15.82;64.42
76660;BME280;65579;45.534;6.212;2023-09-18T05:12:06;97779.24;;;18.03;59.35
76660;BME280;65579;45.534;6.212;2023-09-18T05:14:31;97784.05;;;18.18;57.21
76660;BME280;65579;45.534;6.212;2023-09-18T05:16:56;97778.43;;;20.24;52.59
76660;BME280;65579;45.534;6.212;2023-09-18T05:19:22;97773.46;;;20.30;52.26
76660;BME280;65579;45.534;6.212;2023-09-18T05:21:47;97783.50;;;19.97;51.17
76660;BME280;65579;45.534;6.212;2023-09-18T05:24:13;97792.87;;;21.99;47.15
76660;BME280;65579;45.534;6.212;2023-09-18T05:26:39;97807.46;;;21.59;47.48
76660;BME280;65579;45.534;6.212;2023-09-18T05:29:04;97800.44;;;20.04;51.61
76660;BME280;65579;45.534;6.212;2023-09-18T05:31:30;97781.89;;;19.01;55.04
76660;BME280;65579;45.534;6.212;2023-09-18T05:33:55;97778.02;;;21.70;48.38
76660;BME280;65579;45.534;6.212;2023-09-18T05:36:20;97784.35;;;17.71;59.51
76660;BME280;65579;45.534;6.212;2023-09-18T05:38:46;97792.82;;;20.51;51.56
76660;BME280;65579;45.534;6.212;2023-09-18T05:41:11;97803.52;;;21.46;49.17
76660;BME280;65579;45.534;6.212;2023-09-18T05:43:37;97826.75;;;20.31;52.09
76660;BME280;65579;45.534;6.212;2023-09-18T05:46:03;97820.79;;;19.73;53.87
76660;BME280;65579;45.534;6.212;2023-09-18T05:48:28;97809.21;;;19.98;52.84
76660;BME280;65579;45.534;6.212;2023-09-18T05:50:53;97809.75;;;20.45;52.22
76660;BME280;65579;45.534;6.212;2023-09-18T05:53:18;97806.31;;;20.28;52.84
76660;BME280;65579;45.534;6.212;2023-09-18T05:55:44;97796.07;;;19.84;54.06
76660;BME280;65579;45.534;6.212;2023-09-18T05:58:09;97794.09;;;20.37;52.23
76660;BME280;65579;45.534;6.212;2023-09-18T06:00:35;97792.38;;;21.60;49.12
76660;BME280;65579;45.534;6.212;2023-09-18T06:03:01;97801.35;;;22.82;47.00
76660;BME280;65579;45.534;6.212;2023-09-18T06:05:27;97804.08;;;22.46;46.55
76660;BME280;65579;45.534;6.212;2023-09-18T06:07:52;97815.30;;;18.73;54.43
76660;BME280;65579;45.534;6.212;2023-09-18T06:10:18;97826.80;;;16.06;62.72
76660;BME280;65579;45.534;6.212;2023-09-18T06:12:44;97827.22;;;18.55;58.41
76660;BME280;65579;45.534;6.212;2023-09-18T06:15:10;97829.86;;;20.51;52.69
76660;BME280;65579;45.534;6.212;2023-09-18T06:17:34;97817.24;;;21.70;49.59
76660;BME280;65579;45.534;6.212;2023-09-18T06:20:00;97815.05;;;22.74;46.72
76660;BME280;65579;45.534;6.212;2023-09-18T06:22:25;97830.00;;;21.22;50.26
76660;BME280;65579;45.534;6.212;2023-09-18T06:24:51;97839.11;;;22.47;47.74
76660;BME280;65579;45.534;6.212;2023-09-18T06:27:17;97842.20;;;21.04;50.34
76660;BME280;65579;45.534;6.212;2023-09-18T06:29:42;97830.04;;;21.83;49.04
76660;BME280;65579;45.534;6.212;2023-09-18T06:32:08;97835.90;;;20.68;51.41
76660;BME280;65579;45.534;6.212;2023-09-18T06:34:33;97849.92;;;18.41;58.51
76660;BME280;65579;45.534;6.212;2023-09-18T06:36:59;97860.50;;;17.50;60.73
76660;BME280;65579;45.534;6.212;2023-09-18T06:39:25;97863.93;;;19.07;56.80
76660;BME280;65579;45.534;6.212;2023-09-18T06:41:50;97861.70;;;20.76;52.74
76660;BME280;65579;45.534;6.212;2023-09-18T06:44:16;97850.56;;;18.49;56.40
76660;BME280;65579;45.534;6.212;2023-09-18T06:46:42;97848.04;;;18.59;57.75
76660;BME280;65579;45.534;6.212;2023-09-18T06:49:07;97856.23;;;20.61;53.59
76660;BME280;65579;45.534;6.212;2023-09-18T06:51:33;97853.87;;;19.59;56.16
76660;BME280;65579;45.534;6.212;2023-09-18T06:53:58;97845.58;;;19.37;56.98
76660;BME280;65579;45.534;6.212;2023-09-18T06:56:24;97852.46;;;15.50;67.03
76660;BME280;65579;45.534;6.212;2023-09-18T06:59:01;97853.43;;;19.27;57.84
76660;BME280;65579;45.534;6.212;2023-09-18T07:01:15;97865.50;;;21.32;51.18
76660;BME280;65579;45.534;6.212;2023-09-18T07:03:41;97884.65;;;22.04;49.54
76660;BME280;65579;45.534;6.212;2023-09-18T07:06:07;97885.83;;;22.33;48.55
76660;BME280;65579;45.534;6.212;2023-09-18T07:08:32;97876.36;;;22.90;47.78
76660;BME280;65579;45.534;6.212;2023-09-18T07:10:58;97887.29;;;23.27;46.70
76660;BME280;65579;45.534;6.212;2023-09-18T07:13:23;97895.42;;;22.84;47.94
76660;BME280;65579;45.534;6.212;2023-09-18T07:15:49;97898.87;;;23.34;46.59
76660;BME280;65579;45.534;6.212;2023-09-18T07:18:15;97904.53;;;23.61;45.64
76660;BME280;65579;45.534;6.212;2023-09-18T07:20:40;97913.08;;;24.29;44.56
76660;BME280;65579;45.534;6.212;2023-09-18T07:23:05;97924.54;;;24.42;43.82
76660;BME280;65579;45.534;6.212;2023-09-18T07:25:31;97920.77;;;23.43;46.39
76660;BME280;65579;45.534;6.212;2023-09-18T07:27:57;97910.16;;;24.37;44.39
76660;BME280;65579;45.534;6.212;2023-09-18T07:30:22;97908.06;;;22.42;48.93
76660;BME280;65579;45.534;6.212;2023-09-18T07:32:48;97914.79;;;20.89;51.51
76660;BME280;65579;45.534;6.212;2023-09-18T07:35:13;97916.28;;;19.82;53.61
76660;BME280;65579;45.534;6.212;2023-09-18T07:37:39;97917.51;;;17.57;59.78
76660;BME280;65579;45.534;6.212;2023-09-18T07:40:06;97933.06;;;21.00;51.76
76660;BME280;65579;45.534;6.212;2023-09-18T07:42:29;97928.25;;;23.19;46.82
76660;BME280;65579;45.534;6.212;2023-09-18T07:44:55;97921.56;;;24.03;46.53
76660;BME280;65579;45.534;6.212;2023-09-18T07:47:20;97923.94;;;24.50;44.95
76660;BME280;65579;45.534;6.212;2023-09-18T07:49:46;97919.61;;;23.73;46.65
76660;BME280;65579;45.534;6.212;2023-09-18T07:52:11;97927.06;;;22.31;49.82
76660;BME280;65579;45.534;6.212;2023-09-18T07:54:36;97929.90;;;20.82;53.61
76660;BME280;65579;45.534;6.212;2023-09-18T07:57:02;97910.44;;;21.81;52.10
76660;BME280;65579;45.534;6.212;2023-09-18T07:59:27;97916.02;;;21.88;50.91
76660;BME280;65579;45.534;6.212;2023-09-18T08:01:53;97988.97;;;19.43;57.05
76660;BME280;65579;45.534;6.212;2023-09-18T08:04:19;98032.23;;;16.88;64.32
76660;BME280;65579;45.534;6.212;2023-09-18T08:06:45;98048.71;;;16.48;66.88
76660;BME280;65579;45.534;6.212;2023-09-18T08:09:10;98030.20;;;16.45;67.64
76660;BME280;65579;45.534;6.212;2023-09-18T08:11:36;97993.76;;;17.56;65.32
76660;BME280;65579;45.534;6.212;2023-09-18T08:14:01;97972.22;;;18.47;64.18
76660;BME280;65579;45.534;6.212;2023-09-18T08:16:27;97984.34;;;19.03;61.54
76660;BME280;65579;45.534;6.212;2023-09-18T08:18:52;97994.58;;;19.80;59.67
76660;BME280;65579;45.534;6.212;2023-09-18T08:21:18;97988.94;;;19.11;60.05
76660;BME280;65579;45.534;6.212;2023-09-18T08:23:44;97989.11;;;17.34;64.89
76660;BME280;65579;45.534;6.212;2023-09-18T08:26:10;97987.50;;;18.80;61.09
76660;BME280;65579;45.534;6.212;2023-09-18T08:28:35;97994.81;;;16.74;66.86
76660;BME280;65579;45.534;6.212;2023-09-18T08:31:01;97978.75;;;19.06;61.49
76660;BME280;65579;45.534;6.212;2023-09-18T08:33:26;97961.74;;;18.34;64.47
76660;BME280;65579;45.534;6.212;2023-09-18T08:35:52;97946.67;;;20.15;59.62
76660;BME280;65579;45.534;6.212;2023-09-18T08:38:17;97949.68;;;18.31;60.75
76660;BME280;65579;45.534;6.212;2023-09-18T08:40:43;97959.90;;;16.97;65.64
76660;BME280;65579;45.534;6.212;2023-09-18T08:43:12;97958.85;;;16.48;67.70
76660;BME280;65579;45.534;6.212;2023-09-18T08:45:40;97952.58;;;18.59;63.50
76660;BME280;65579;45.534;6.212;2023-09-18T08:48:01;97947.50;;;19.44;58.19
76660;BME280;65579;45.534;6.212;2023-09-18T08:50:25;97953.30;;;20.97;56.07
76660;BME280;65579;45.534;6.212;2023-09-18T08:52:51;97954.23;;;20.63;55.38
76660;BME280;65579;45.534;6.212;2023-09-18T08:55:17;97959.79;;;20.50;54.97
76660;BME280;65579;45.534;6.212;2023-09-18T08:57:43;97965.11;;;17.56;64.19
76660;BME280;65579;45.534;6.212;2023-09-18T09:00:09;97977.91;;;19.03;59.20
76660;BME280;65579;45.534;6.212;2023-09-18T09:02:34;97990.67;;;22.67;50.70
76660;BME280;65579;45.534;6.212;2023-09-18T09:04:59;98002.27;;;24.44;46.15
76660;BME280;65579;45.534;6.212;2023-09-18T09:07:25;98014.05;;;24.01;46.24
76660;BME280;65579;45.534;6.212;2023-09-18T09:09:50;98009.97;;;23.51;46.81
76660;BME280;65579;45.534;6.212;2023-09-18T09:12:16;98004.54;;;24.13;45.79
76660;BME280;65579;45.534;6.212;2023-09-18T09:17:07;97989.47;;;21.56;50.49
76660;BME280;65579;45.534;6.212;2023-09-18T09:19:34;97982.28;;;21.18;52.24
76660;BME280;65579;45.534;6.212;2023-09-18T09:21:59;97979.97;;;20.86;52.94
76660;BME280;65579;45.534;6.212;2023-09-18T09:24:37;97968.30;;;21.60;52.06
76660;BME280;65579;45.534;6.212;2023-09-18T09:26:58;97964.30;;;22.61;48.94
76660;BME280;65579;45.534;6.212;2023-09-18T09:29:16;97964.72;;;24.63;46.12
76660;BME280;65579;45.534;6.212;2023-09-18T09:31:41;97960.93;;;25.33;43.45
76660;BME280;65579;45.534;6.212;2023-09-18T09:34:07;97963.92;;;26.37;41.97
76660;BME280;65579;45.534;6.212;2023-09-18T09:36:32;97972.10;;;25.43;43.08
76660;BME280;65579;45.534;6.212;2023-09-18T09:38:58;97977.56;;;25.32;42.84
76660;BME280;65579;45.534;6.212;2023-09-18T09:41:24;98003.87;;;20.48;49.57
76660;BME280;65579;45.534;6.212;2023-09-18T09:43:49;97998.14;;;24.73;43.39
76660;BME280;65579;45.534;6.212;2023-09-18T09:46:16;97980.27;;;26.43;40.60
76660;BME280;65579;45.534;6.212;2023-09-18T09:48:39;97986.37;;;26.89;39.25
76660;BME280;65579;45.534;6.212;2023-09-18T09:51:05;97974.91;;;27.22;38.88
76660;BME280;65579;45.534;6.212;2023-09-18T09:53:42;97984.14;;;22.85;47.25
76660;BME280;65579;45.534;6.212;2023-09-18T09:55:57;98001.10;;;22.34;49.31
76660;BME280;65579;45.534;6.212;2023-09-18T09:58:28;98006.99;;;24.53;44.31
76660;BME280;65579;45.534;6.212;2023-09-18T10:00:52;98007.54;;;25.39;42.22
76660;BME280;65579;45.534;6.212;2023-09-18T10:03:15;98010.91;;;25.98;41.53
76660;BME280;65579;45.534;6.212;2023-09-18T10:05:40;98025.46;;;26.59;41.01
76660;BME280;65579;45.534;6.212;2023-09-18T10:08:08;98015.76;;;24.56;43.12
76660;BME280;65579;45.534;6.212;2023-09-18T10:10:35;98018.85;;;26.23;40.81
76660;BME280;65579;45.534;6.212;2023-09-18T10:12:58;98023.65;;;26.05;41.42
76660;BME280;65579;45.534;6.212;2023-09-18T10:15:22;98034.00;;;26.47;41.14
76660;BME280;65579;45.534;6.212;2023-09-18T10:17:49;98046.94;;;26.69;41.47
76660;BME280;65579;45.534;6.212;2023-09-18T10:20:14;98049.95;;;24.10;47.14
76660;BME280;65579;45.534;6.212;2023-09-18T10:22:40;98056.55;;;24.04;47.37
76660;BME280;65579;45.534;6.212;2023-09-18T10:25:10;98060.47;;;21.96;51.35
76660;BME280;65579;45.534;6.212;2023-09-18T10:27:29;98050.01;;;23.34;48.86
76660;BME280;65579;45.534;6.212;2023-09-18T10:29:54;98043.65;;;25.63;44.17
76660;BME280;65579;45.534;6.212;2023-09-18T10:32:20;98039.27;;;25.06;45.02
76660;BME280;65579;45.534;6.212;2023-09-18T10:34:46;98031.13;;;25.64;44.60
76660;BME280;65579;45.534;6.212;2023-09-18T10:37:12;98034.88;;;22.92;50.58
76660;BME280;65579;45.534;6.212;2023-09-18T10:39:38;98057.59;;;20.69;55.51
76660;BME280;65579;45.534;6.212;2023-09-18T10:42:03;98077.26;;;20.88;55.00
76660;BME280;65579;45.534;6.212;2023-09-18T10:44:28;98103.00;;;21.55;53.42
76660;BME280;65579;45.534;6.212;2023-09-18T10:46:53;98079.65;;;20.10;57.44
76660;BME280;65579;45.534;6.212;2023-09-18T10:49:20;98026.70;;;20.20;59.32
76660;BME280;65579;45.534;6.212;2023-09-18T10:51:46;98029.13;;;21.92;55.04
76660;BME280;65579;45.534;6.212;2023-09-18T10:54:12;98053.75;;;23.25;50.78
76660;BME280;65579;45.534;6.212;2023-09-18T10:56:36;98070.28;;;23.21;49.86
76660;BME280;65579;45.534;6.212;2023-09-18T10:59:05;98083.29;;;23.32;49.42
76660;BME280;65579;45.534;6.212;2023-09-18T11:01:29;98127.49;;;21.94;53.13
76660;BME280;65579;45.534;6.212;2023-09-18T11:03:57;98124.45;;;19.66;60.16
76660;BME280;65579;45.534;6.212;2023-09-18T11:06:19;98115.98;;;19.18;60.93
76660;BME280;65579;45.534;6.212;2023-09-18T11:08:46;98113.15;;;21.39;55.21
76660;BME280;65579;45.534;6.212;2023-09-18T11:11:12;98111.05;;;23.15;50.59
76660;BME280;65579;45.534;6.212;2023-09-18T11:13:39;98099.84;;;23.56;48.76
76660;BME280;65579;45.534;6.212;2023-09-18T11:18:32;98131.74;;;23.26;50.29
76660;BME280;65579;45.534;6.212;2023-09-18T11:23:24;98115.08;;;22.08;52.00
76660;BME280;65579;45.534;6.212;2023-09-18T11:25:45;98130.97;;;23.12;51.15
76660;BME280;65579;45.534;6.212;2023-09-18T11:28:14;98143.36;;;23.58;48.74
76660;BME280;65579;45.534;6.212;2023-09-18T11:30:37;98148.60;;;23.03;50.02
76660;BME280;65579;45.534;6.212;2023-09-18T11:33:03;98149.67;;;22.38;50.97
76660;BME280;65579;45.534;6.212;2023-09-18T11:35:28;98143.65;;;21.38;52.72
76660;BME280;65579;45.534;6.212;2023-09-18T11:38:05;98110.38;;;18.63;60.59
76660;BME280;65579;45.534;6.212;2023-09-18T11:40:29;98141.20;;;19.52;60.03
76660;BME280;65579;45.534;6.212;2023-09-18T11:45:16;98231.59;;;21.72;53.12
76660;BME280;65579;45.534;6.212;2023-09-18T11:47:37;98232.21;;;16.84;65.05
76660;BME280;65579;45.534;6.212;2023-09-18T11:50:03;98232.34;;;19.04;60.14
76660;BME280;65579;45.534;6.212;2023-09-18T11:52:29;98219.65;;;20.25;57.54
76660;BME280;65579;45.534;6.212;2023-09-18T11:54:57;98204.26;;;19.66;59.71
76660;BME280;65579;45.534;6.212;2023-09-18T11:57:20;98186.00;;;18.66;62.55
76660;BME280;65579;45.534;6.212;2023-09-18T11:59:46;98178.24;;;18.32;63.77
76660;BME280;65579;45.534;6.212;2023-09-18T12:02:12;98154.66;;;17.10;66.56
76660;BME280;65579;45.534;6.212;2023-09-18T12:04:37;98144.43;;;16.53;69.26
76660;BME280;65579;45.534;6.212;2023-09-18T12:07:04;98162.45;;;17.62;66.84
76660;BME280;65579;45.534;6.212;2023-09-18T12:09:30;98183.50;;;18.09;63.25
76660;BME280;65579;45.534;6.212;2023-09-18T12:11:55;98207.11;;;21.00;55.80
76660;BME280;65579;45.534;6.212;2023-09-18T12:14:21;98218.39;;;21.15;53.89
76660;BME280;65579;45.534;6.212;2023-09-18T12:16:47;98170.60;;;19.45;58.48
76660;BME280;65579;45.534;6.212;2023-09-18T12:19:16;98175.32;;;20.07;57.70
76660;BME280;65579;45.534;6.212;2023-09-18T12:21:41;98182.60;;;21.75;53.80
76660;BME280;65579;45.534;6.212;2023-09-18T12:24:04;98196.82;;;21.21;55.35
76660;BME280;65579;45.534;6.212;2023-09-18T12:26:29;98198.99;;;22.24;52.81
76660;BME280;65579;45.534;6.212;2023-09-18T12:28:55;98194.43;;;20.50;54.97
76660;BME280;65579;45.534;6.212;2023-09-18T12:31:21;98202.93;;;15.06;71.24
76660;BME280;65579;45.534;6.212;2023-09-18T12:33:47;98206.87;;;15.12;72.81
76660;BME280;65579;45.534;6.212;2023-09-18T12:36:12;98214.07;;;17.06;66.83
76660;BME280;65579;45.534;6.212;2023-09-18T12:38:38;98224.98;;;16.47;65.87
76660;BME280;65579;45.534;6.212;2023-09-18T12:41:05;98213.92;;;16.35;66.99
76660;BME280;65579;45.534;6.212;2023-09-18T12:43:30;98195.30;;;14.75;72.90
76660;BME280;65579;45.534;6.212;2023-09-18T12:45:56;98194.76;;;14.95;72.40
76660;BME280;65579;45.534;6.212;2023-09-18T12:48:22;98163.01;;;15.16;71.08
76660;BME280;65579;45.534;6.212;2023-09-18T12:50:51;98137.63;;;13.99;75.18
76660;BME280;65579;45.534;6.212;2023-09-18T12:53:13;98145.09;;;14.61;73.78
76660;BME280;65579;45.534;6.212;2023-09-18T12:55:37;98166.98;;;16.02;69.62
76660;BME280;65579;45.534;6.212;2023-09-18T12:58:02;98172.37;;;17.32;65.46
76660;BME280;65579;45.534;6.212;2023-09-18T13:00:27;98160.92;;;19.34;59.29